Time;durP1;ratioP1;P1;durP2;ratioP2;P2;SDS_P1;SDS_P2;PMS_P1;PMS_P2;Temp;Humidity;BMP_temperature;BMP_pressure;BME280_temperature;BME280_humidity;BME280_pressure;Samples;Min_cycle;Max_cycle;Signal;HPM_P1;HPM_P2
2022/12/07 00:00:58;;;;;;;7.17;3.17;;;;;;;-0.65;55.79;100896.47;1728323;81;21255;-60
2022/12/07 00:03:24;;;;;;;7.33;2.98;;;;;;;-0.61;55.58;100893.74;1719613;82;21062;-60
2022/12/07 00:05:51;;;;;;;7.17;3.08;;;;;;;-0.57;55.52;100890.21;1703859;83;21058;-60
2022/12/07 00:08:18;;;;;;;6.87;2.92;;;;;;;-0.57;55.44;100884.20;1761757;80;20977;-60
2022/12/07 00:10:44;;;;;;;8.18;3.12;;;;;;;-0.55;55.34;100887.59;1765291;80;21416;-60
2022/12/07 00:13:11;;;;;;;7.97;2.92;;;;;;;-0.56;55.47;100888.02;1723038;82;21224;-60
2022/12/07 00:15:38;;;;;;;10.70;3.70;;;;;;;-0.49;55.59;100887.86;1752273;80;22266;-60
2022/12/07 00:18:04;;;;;;;7.08;2.92;;;;;;;-0.45;55.49;100885.63;1756876;80;21101;-60
2022/12/07 00:20:31;;;;;;;7.42;3.20;;;;;;;-0.40;55.44;100886.34;1762195;79;22164;-60
2022/12/07 00:22:58;;;;;;;7.25;2.58;;;;;;;-0.38;55.41;100887.98;1760697;80;21764;-60
2022/12/07 00:25:24;;;;;;;8.98;3.37;;;;;;;-0.35;55.39;100888.78;1716364;82;23171;-60
2022/12/07 00:27:53;;;;;;;6.87;3.20;;;;;;;-0.34;55.20;100884.87;1752544;80;21100;-61
2022/12/07 00:30:20;;;;;;;10.18;3.42;;;;;;;-0.31;55.05;100889.13;1759443;79;21137;-60
2022/12/07 00:32:46;;;;;;;9.43;2.85;;;;;;;-0.32;54.95;100884.41;1754582;80;21043;-60
2022/12/07 00:35:13;;;;;;;10.45;3.42;;;;;;;-0.30;54.98;100876.16;1706001;82;21131;-60
2022/12/07 00:37:40;;;;;;;7.37;3.20;;;;;;;-0.26;54.96;100879.05;1722895;82;21109;-60
2022/12/07 00:40:07;;;;;;;6.90;3.33;;;;;;;-0.21;54.84;100872.47;1749095;82;21060;-60
2022/12/07 00:42:34;;;;;;;7.10;2.80;;;;;;;-0.17;54.77;100875.81;1720311;82;21093;-60
2022/12/07 00:45:01;;;;;;;20.70;4.05;;;;;;;-0.20;54.84;100872.88;1713688;82;21063;-60
2022/12/07 00:47:27;;;;;;;12.47;3.58;;;;;;;-0.19;54.84;100881.86;1763204;80;21101;-60
2022/12/07 00:49:54;;;;;;;8.68;3.08;;;;;;;-0.23;55.12;100878.97;1763538;79;21149;-60
2022/12/07 00:52:20;;;;;;;8.75;3.02;;;;;;;-0.09;54.97;100868.23;1757329;80;21121;-60
2022/12/07 00:54:47;;;;;;;14.45;3.30;;;;;;;-0.05;54.81;100867.70;1758380;80;20943;-60
2022/12/07 00:57:13;;;;;;;5.50;2.50;;;;;;;-0.01;54.64;100871.45;1758835;80;21059;-60
2022/12/07 00:59:40;;;;;;;9.65;3.47;;;;;;;-0.09;54.98;100864.35;1758380;80;21153;-61
2022/12/07 01:02:06;;;;;;;5.58;2.55;;;;;;;-0.06;55.13;100854.37;1770440;80;21320;-60
2022/12/07 01:04:34;;;;;;;10.63;4.05;;;;;;;-0.04;54.84;100856.47;1760869;80;21090;-60
2022/12/07 01:07:01;;;;;;;9.70;3.77;;;;;;;-0.06;54.81;100845.33;1749955;80;21039;-60
2022/12/07 01:09:27;;;;;;;7.72;2.87;;;;;;;-0.07;54.84;100853.97;1747431;80;21032;-61
2022/12/07 01:11:54;;;;;;;6.37;3.42;;;;;;;-0.09;54.88;100851.88;1753328;80;21123;-61
2022/12/07 01:14:20;;;;;;;8.85;3.58;;;;;;;-0.10;55.11;100848.45;1702022;84;21244;-61
2022/12/07 01:16:47;;;;;;;7.62;2.60;;;;;;;-0.09;55.17;100840.23;1750602;79;21113;-61
2022/12/07 01:19:14;;;;;;;6.95;2.83;;;;;;;-0.11;55.21;100838.14;1745701;80;21409;-61
2022/12/07 01:21:40;;;;;;;12.68;3.27;;;;;;;-0.12;55.29;100841.16;1749703;80;21145;-61
2022/12/07 01:24:09;;;;;;;7.45;2.50;;;;;;;-0.12;55.40;100838.56;1747884;80;21352;-61
2022/12/07 01:26:35;;;;;;;11.68;3.80;;;;;;;-0.14;55.46;100839.52;1753577;80;21129;-61
2022/12/07 01:29:02;;;;;;;5.30;2.40;;;;;;;-0.15;55.51;100826.17;1672207;84;21063;-59
2022/12/07 01:31:29;;;;;;;6.03;2.52;;;;;;;-0.16;55.79;100821.45;1699073;83;21119;-60
2022/12/07 01:33:58;;;;;;;6.80;3.17;;;;;;;-0.20;55.90;100821.98;1694021;82;21147;-60
2022/12/07 01:36:30;;;;;;;9.10;3.55;;;;;;;-0.20;56.08;100815.52;1686392;84;21625;-59
2022/12/07 01:39:02;;;;;;;8.83;3.22;;;;;;;-0.17;56.20;100813.73;1684561;84;21861;-61
2022/12/07 01:41:32;;;;;;;6.47;2.55;;;;;;;-0.16;56.20;100807.68;1688907;84;21470;-60
2022/12/07 01:47:17;;;;;;;10.15;3.25;;;;;;;-0.19;56.34;100804.27;1666717;85;21087;-60
2022/12/07 01:49:46;;;;;;;42.10;5.47;;;;;;;-0.20;56.50;100797.42;1660549;84;21119;-61
2022/12/07 01:52:28;;;;;;;7.87;3.80;;;;;;;-0.15;56.70;100801.59;1667128;85;23022;-60
2022/12/07 01:54:58;;;;;;;8.13;3.10;;;;;;;-0.15;56.76;100792.55;1653401;84;21109;-60
2022/12/07 01:57:25;;;;;;;7.53;3.25;;;;;;;-0.20;56.90;100784.94;1654267;85;21073;-60
2022/12/07 01:59:51;;;;;;;10.93;4.53;;;;;;;-0.21;57.18;100787.95;1653905;86;21048;-60
2022/12/07 02:02:25;;;;;;;7.95;3.40;;;;;;;-0.21;57.39;100781.48;1650961;85;21122;-61
2022/12/07 02:04:52;;;;;;;10.38;3.12;;;;;;;-0.21;57.47;100789.24;1653284;85;21326;-60
2022/12/07 02:07:20;;;;;;;8.60;3.85;;;;;;;-0.21;57.69;100779.35;1651348;86;21573;-60
2022/12/07 02:09:47;;;;;;;6.40;2.77;;;;;;;-0.20;57.96;100772.01;1650330;85;21122;-60
2022/12/07 02:12:14;;;;;;;7.67;4.03;;;;;;;-0.20;58.16;100774.14;1655441;84;21078;-61
2022/12/07 02:14:40;;;;;;;9.55;5.35;;;;;;;-0.22;58.42;100773.77;1653663;85;21080;-61
2022/12/07 02:17:34;;;;;;;9.55;4.42;;;;;;;-0.23;58.92;100770.80;1696954;82;21886;-60
2022/12/07 02:20:15;;;;;;;7.50;4.03;;;;;;;-0.21;59.16;100775.47;1705452;83;21057;-61
2022/12/07 02:23:14;;;;;;;11.68;4.30;;;;;;;-0.21;59.33;100775.47;1708611;83;21098;-62
2022/12/07 02:26:21;;;;;;;10.00;4.50;;;;;;;-0.19;59.51;100776.27;1708999;83;22153;-61
2022/12/07 02:29:11;;;;;;;10.55;3.70;;;;;;;-0.15;59.82;100772.72;1704111;83;21068;-62
2022/12/07 02:31:48;;;;;;;10.85;4.22;;;;;;;-0.10;59.97;100769.55;1712368;83;21164;-60
2022/12/07 02:34:33;;;;;;;11.12;3.83;;;;;;;-0.08;60.02;100770.80;1701562;83;21044;-59
2022/12/07 02:37:04;;;;;;;10.53;4.67;;;;;;;-0.08;60.13;100769.05;1709122;82;21096;-60
2022/12/07 02:39:48;;;;;;;12.58;4.25;;;;;;;-0.14;60.45;100770.52;1709358;83;21045;-61
2022/12/07 02:42:19;;;;;;;13.30;4.60;;;;;;;-0.16;60.70;100763.70;1699623;83;22093;-61
2022/12/07 02:44:46;;;;;;;15.55;4.42;;;;;;;-0.22;61.00;100765.59;1708161;83;21205;-60
2022/12/07 02:47:14;;;;;;;10.80;5.12;;;;;;;-0.24;61.27;100760.88;1713130;83;21182;-61
2022/12/07 02:49:41;;;;;;;10.03;4.22;;;;;;;-0.09;61.26;100756.16;1710290;83;21095;-61
2022/12/07 02:52:25;;;;;;;13.53;4.95;;;;;;;-0.15;61.42;100753.74;1712473;83;21048;-61
2022/12/07 02:54:52;;;;;;;10.95;3.77;;;;;;;-0.14;61.42;100752.86;1700294;83;21146;-61
2022/12/07 02:57:39;;;;;;;9.25;3.62;;;;;;;-0.05;61.23;100744.81;1699719;83;21286;-61
2022/12/07 03:00:12;;;;;;;14.18;4.35;;;;;;;-0.03;61.37;100745.18;1675367;83;21043;-61
2022/12/07 03:03:06;;;;;;;11.60;4.08;;;;;;;-0.02;61.36;100745.59;1707892;83;21108;-61
2022/12/07 03:06:03;;;;;;;10.32;3.92;;;;;;;-0.02;61.42;100741.71;1710705;82;21088;-60
2022/12/07 03:08:57;;;;;;;10.25;3.65;;;;;;;-0.02;61.50;100734.38;1711921;83;21417;-60
2022/12/07 03:17:32;;;;;;;8.90;3.60;;;;;;;-0.09;62.35;100729.83;1671784;84;21145;-61
2022/12/07 03:20:00;;;;;;;10.35;4.33;;;;;;;-0.28;62.90;100728.25;1681291;85;21056;-61
2022/12/07 03:22:29;;;;;;;8.40;3.05;;;;;;;-0.31;63.44;100721.87;1692187;83;21123;-61
2022/12/07 03:24:58;;;;;;;8.95;3.55;;;;;;;-0.30;63.63;100724.87;1697490;83;21180;-60
2022/12/07 03:27:32;;;;;;;10.72;3.70;;;;;;;-0.29;63.81;100727.84;1687577;85;21025;-60
2022/12/07 03:30:05;;;;;;;9.90;3.67;;;;;;;-0.27;63.93;100720.91;1686777;84;21081;-61
2022/12/07 03:32:43;;;;;;;8.30;3.67;;;;;;;-0.28;64.02;100714.03;1683713;85;21768;-61
2022/12/07 03:35:18;;;;;;;9.90;3.58;;;;;;;-0.31;64.06;100716.70;1687733;85;21064;-61
2022/12/07 03:37:53;;;;;;;13.90;4.12;;;;;;;-0.34;64.16;100712.07;1687562;85;21954;-59
2022/12/07 03:40:37;;;;;;;8.73;3.73;;;;;;;-0.38;64.57;100708.28;1687692;85;21052;-61
2022/12/07 03:43:03;;;;;;;8.90;4.12;;;;;;;-0.38;64.74;100703.56;1687490;85;21504;-60
2022/12/07 03:45:38;;;;;;;9.68;3.47;;;;;;;-0.38;64.80;100700.52;1678099;84;21078;-61
2022/12/07 03:48:22;;;;;;;8.50;3.37;;;;;;;-0.34;65.09;100696.10;1699695;82;21536;-60
2022/12/07 03:50:54;;;;;;;8.88;2.75;;;;;;;-0.30;64.93;100691.25;1699811;83;21101;-60
2022/12/07 03:53:26;;;;;;;11.78;3.58;;;;;;;-0.30;64.92;100689.96;1706567;82;21022;-60
2022/12/07 03:55:54;;;;;;;6.85;3.08;;;;;;;-0.32;64.91;100688.30;1688549;83;21071;-61
2022/12/07 03:58:21;;;;;;;10.48;2.87;;;;;;;-0.33;64.91;100683.58;1714576;83;21031;-61
2022/12/07 04:00:48;;;;;;;12.37;3.90;;;;;;;-0.32;65.05;100687.87;1714404;82;21087;-61
2022/12/07 04:03:15;;;;;;;6.50;3.33;;;;;;;-0.29;65.07;100689.50;1654587;85;21282;-62
2022/12/07 04:05:41;;;;;;;9.83;4.17;;;;;;;-0.26;65.04;100686.83;1673350;84;21115;-61
2022/12/07 04:08:08;;;;;;;9.68;3.37;;;;;;;-0.24;65.20;100685.88;1686246;84;21004;-61
2022/12/07 04:10:34;;;;;;;10.45;2.70;;;;;;;-0.19;65.05;100680.57;1677083;84;21095;-62
2022/12/07 04:13:01;;;;;;;9.78;3.10;;;;;;;-0.20;64.97;100678.44;1676502;84;21149;-61
2022/12/07 04:17:12;;;;;;;7.97;2.95;;;;;;;-0.27;65.42;100678.23;1848187;75;22503;-60
2022/12/07 04:19:38;;;;;;;9.40;3.62;;;;;;;-0.15;65.15;100677.02;1818580;77;22311;-61
2022/12/07 04:22:05;;;;;;;8.95;3.50;;;;;;;-0.07;64.70;100672.45;1828527;76;21575;-61
2022/12/07 04:24:32;;;;;;;8.95;3.00;;;;;;;-0.20;65.14;100666.80;1832628;77;22099;-61
2022/12/07 04:26:58;;;;;;;8.68;2.98;;;;;;;-0.14;65.24;100672.22;1827413;78;20998;-61
2022/12/07 04:29:25;;;;;;;7.28;3.20;;;;;;;-0.13;65.19;100669.21;1830675;77;21029;-61
2022/12/07 04:31:52;;;;;;;9.80;3.85;;;;;;;-0.12;65.13;100660.53;1828779;78;20940;-60
2022/12/07 04:34:18;;;;;;;10.82;3.90;;;;;;;-0.12;65.10;100664.42;1826237;78;21212;-61
2022/12/07 04:36:45;;;;;;;6.90;2.72;;;;;;;-0.14;65.22;100648.94;1831134;77;21030;-61
2022/12/07 04:39:22;;;;;;;6.85;2.60;;;;;;;-0.13;65.21;100651.10;1829104;78;21127;-61
2022/12/07 04:41:48;;;;;;;5.78;2.37;;;;;;;-0.15;65.18;100654.16;1827965;77;21581;-61
2022/12/07 04:44:15;;;;;;;5.45;2.12;;;;;;;-0.15;65.32;100654.16;1830767;77;21079;-61
2022/12/07 04:46:42;;;;;;;9.80;2.52;;;;;;;-0.14;65.43;100653.28;1819386;78;21602;-61
2022/12/07 04:49:09;;;;;;;8.68;2.65;;;;;;;-0.15;65.40;100655.45;1823244;77;21070;-60
2022/12/07 04:51:35;;;;;;;7.53;2.87;;;;;;;-0.14;65.35;100649.40;1824451;77;22119;-62
2022/12/07 04:54:02;;;;;;;11.08;3.25;;;;;;;-0.15;65.51;100647.70;1832711;77;21032;-61
2022/12/07 04:56:29;;;;;;;5.72;2.05;;;;;;;-0.10;65.57;100649.27;1828612;77;20983;-62
2022/12/07 04:58:55;;;;;;;9.93;2.75;;;;;;;-0.07;65.43;100644.42;1835330;77;21144;-62
2022/12/07 05:01:22;;;;;;;7.05;3.25;;;;;;;-0.06;65.38;100636.62;1831550;78;21569;-61
2022/12/07 05:03:49;;;;;;;5.83;2.20;;;;;;;-0.03;65.33;100640.86;1829234;78;21495;-60
2022/12/07 05:06:15;;;;;;;7.50;2.77;;;;;;;-0.03;65.14;100638.27;1829159;78;21662;-60
2022/12/07 05:08:42;;;;;;;5.50;2.17;;;;;;;-0.04;64.94;100639.16;1827638;77;21549;-60
2022/12/07 05:11:37;;;;;;;8.60;2.60;;;;;;;-0.07;65.03;100640.12;1823351;78;21117;-60
2022/12/07 05:13:38;;;;;;;6.08;2.67;;;;;;;-0.07;64.93;100638.82;1827366;77;21059;-60
2022/12/07 05:16:05;;;;;;;5.78;2.40;;;;;;;-0.06;65.06;100627.56;1822145;77;21057;-60
2022/12/07 05:18:32;;;;;;;10.28;3.08;;;;;;;-0.01;64.99;100624.83;1819398;78;20991;-61
2022/12/07 05:20:58;;;;;;;6.08;2.52;;;;;;;-0.01;64.70;100623.54;1816959;78;21331;-60
2022/12/07 05:23:25;;;;;;;6.78;2.42;;;;;;;-0.03;64.68;100622.30;1814914;78;21270;-61
2022/12/07 05:25:51;;;;;;;11.10;2.62;;;;;;;0.00;64.74;100617.48;1819972;78;21340;-61
2022/12/07 05:28:18;;;;;;;8.40;3.08;;;;;;;0.01;64.69;100621.74;1812324;77;20983;-61
2022/12/07 05:30:45;;;;;;;6.62;2.50;;;;;;;0.06;64.44;100625.02;1817023;77;21030;-61
2022/12/07 05:33:12;;;;;;;8.90;2.70;;;;;;;0.06;64.25;100630.20;1818039;78;21044;-61
2022/12/07 05:35:38;;;;;;;6.83;2.47;;;;;;;0.06;64.16;100626.77;1816446;78;21259;-61
2022/12/07 05:38:05;;;;;;;7.42;2.20;;;;;;;0.05;64.03;100622.48;1818988;78;20983;-61
2022/12/07 05:40:32;;;;;;;5.58;1.60;;;;;;;0.04;63.90;100629.41;1810790;77;21080;-61
2022/12/07 05:42:58;;;;;;;7.03;2.45;;;;;;;0.04;63.79;100621.65;1814965;77;21003;-61
2022/12/07 05:45:25;;;;;;;11.48;3.22;;;;;;;0.04;63.76;100621.65;1815804;78;21111;-61
2022/12/07 05:47:51;;;;;;;12.88;2.77;;;;;;;0.04;63.79;100626.83;1811850;78;22474;-61
2022/12/07 05:50:20;;;;;;;7.78;2.87;;;;;;;0.06;63.71;100622.89;1817242;77;21009;-61
2022/12/07 05:52:46;;;;;;;7.15;2.00;;;;;;;0.06;63.75;100622.44;1818048;77;21051;-62
2022/12/07 05:55:13;;;;;;;10.35;2.80;;;;;;;0.08;63.70;100634.03;1812513;77;21004;-61
2022/12/07 06:00:55;;;;;;;5.10;1.77;;;;;;;-0.08;64.11;100624.19;1862269;75;23200;-66
2022/12/07 06:03:22;;;;;;;5.97;2.70;;;;;;;0.03;63.51;100626.87;1851159;75;21056;-67
2022/12/07 06:05:48;;;;;;;6.80;2.37;;;;;;;0.04;63.90;100626.83;1854528;75;21854;-66
2022/12/07 06:08:15;;;;;;;8.63;2.52;;;;;;;0.07;63.85;100629.74;1828057;77;21002;-66
2022/12/07 06:10:41;;;;;;;5.65;1.60;;;;;;;0.09;63.81;100638.33;1837252;77;21327;-66
2022/12/07 06:13:09;;;;;;;6.05;2.62;;;;;;;0.08;63.81;100636.16;1849404;75;21011;-66
2022/12/07 06:15:36;;;;;;;10.48;3.20;;;;;;;0.05;63.86;100631.54;1853401;75;21085;-66
2022/12/07 06:18:03;;;;;;;7.95;2.10;;;;;;;0.03;64.01;100633.34;1849810;77;21207;-67
2022/12/07 06:20:29;;;;;;;7.12;2.67;;;;;;;0.03;64.15;100634.17;1842668;77;21364;-67
2022/12/07 06:22:56;;;;;;;10.38;2.47;;;;;;;0.03;64.21;100628.16;1856003;75;21034;-66
2022/12/07 06:25:22;;;;;;;8.83;3.22;;;;;;;0.03;64.28;100633.34;1858982;75;21491;-67
2022/12/07 06:27:49;;;;;;;9.40;2.42;;;;;;;0.03;64.36;100632.88;1853816;75;22181;-67
2022/12/07 06:30:16;;;;;;;8.75;3.17;;;;;;;0.05;64.33;100631.54;1854714;75;21948;-67
2022/12/07 06:32:43;;;;;;;6.85;2.80;;;;;;;-0.01;64.64;100626.97;1844304;75;21105;-67
2022/12/07 06:35:09;;;;;;;8.13;1.98;;;;;;;-0.02;64.75;100625.72;1858282;75;21021;-67
2022/12/07 06:37:36;;;;;;;6.75;2.95;;;;;;;-0.03;64.89;100625.34;1793007;79;21045;-67
2022/12/07 06:40:04;;;;;;;8.05;2.87;;;;;;;-0.04;64.92;100624.47;1785351;78;21114;-68
2022/12/07 06:42:31;;;;;;;8.30;2.35;;;;;;;0.02;64.92;100619.98;1810431;78;21090;-67
2022/12/07 06:44:57;;;;;;;9.23;2.58;;;;;;;0.01;64.80;100619.16;1799377;79;21024;-67
2022/12/07 06:47:25;;;;;;;11.05;2.80;;;;;;;0.01;64.81;100619.16;1752395;79;21018;-66
2022/12/07 06:49:52;;;;;;;6.97;2.27;;;;;;;-0.01;65.04;100620.49;1800705;78;21068;-67
2022/12/07 06:52:18;;;;;;;9.13;2.37;;;;;;;-0.02;65.08;100618.83;1792822;79;21560;-66
2022/12/07 06:54:45;;;;;;;7.50;2.47;;;;;;;-0.02;65.35;100614.94;1786369;79;22172;-67
2022/12/07 06:57:11;;;;;;;7.37;2.62;;;;;;;0.04;65.42;100607.41;1802797;79;21660;-68
2022/12/07 06:59:38;;;;;;;8.38;2.10;;;;;;;0.09;65.35;100610.70;1799887;79;21025;-68
2022/12/07 07:02:04;;;;;;;7.42;2.37;;;;;;;0.11;65.22;100613.23;1791238;78;21537;-68
2022/12/07 07:04:31;;;;;;;6.72;2.35;;;;;;;0.11;65.16;100608.90;1848033;75;21035;-68
2022/12/07 07:06:58;;;;;;;6.72;3.02;;;;;;;0.14;65.26;100611.84;1856434;75;21578;-68
2022/12/07 07:09:24;;;;;;;21.07;2.67;;;;;;;0.21;65.24;100611.20;1847544;75;21038;-68
2022/12/07 07:11:51;;;;;;;9.75;3.60;;;;;;;0.23;65.20;100611.98;1845069;77;21069;-67
2022/12/07 07:14:18;;;;;;;6.72;3.05;;;;;;;0.25;65.18;100603.71;1851839;75;21035;-68
2022/12/07 07:16:46;;;;;;;7.40;2.87;;;;;;;0.24;65.04;100610.64;1855155;75;21156;-67
2022/12/07 07:19:12;;;;;;;26.62;2.95;;;;;;;0.18;65.21;100611.70;1852459;75;21212;-69
2022/12/07 07:21:39;;;;;;;7.25;2.05;;;;;;;0.17;65.42;100608.70;1854827;75;21042;-68
2022/12/07 07:24:06;;;;;;;7.58;2.35;;;;;;;0.15;65.66;100599.28;1857123;75;21035;-67
2022/12/07 07:26:33;;;;;;;8.85;2.77;;;;;;;0.20;65.49;100604.31;1855902;75;21464;-67
2022/12/07 07:29:00;;;;;;;9.48;3.50;;;;;;;0.21;65.43;100599.55;1856710;75;21530;-67
2022/12/07 07:31:26;;;;;;;10.75;3.95;;;;;;;0.24;65.48;100600.75;1853306;77;21889;-67
2022/12/07 07:33:53;;;;;;;7.55;2.67;;;;;;;0.29;65.45;100597.55;1845421;75;21507;-67
2022/12/07 07:36:19;;;;;;;8.65;3.47;;;;;;;0.31;65.42;100601.77;1858044;75;21495;-67
2022/12/07 07:38:46;;;;;;;7.87;3.50;;;;;;;0.34;65.30;100603.42;1855526;75;21042;-67
2022/12/07 07:41:12;;;;;;;6.22;2.65;;;;;;;0.34;65.32;100608.59;1831987;77;21002;-67
2022/12/07 07:43:39;;;;;;;8.53;2.40;;;;;;;0.34;65.35;100608.13;1836748;77;21250;-67
2022/12/07 07:46:05;;;;;;;8.88;3.62;;;;;;;0.34;65.35;100602.95;1839404;77;21080;-67
2022/12/07 07:48:32;;;;;;;7.90;3.72;;;;;;;0.30;65.29;100600.52;1823100;77;21144;-67
2022/12/07 07:50:58;;;;;;;7.80;2.80;;;;;;;0.31;65.35;100602.22;1863656;75;21022;-67
2022/12/07 07:53:25;;;;;;;7.30;2.98;;;;;;;0.27;65.59;100598.90;1832396;75;21026;-67
2022/12/07 07:55:53;;;;;;;7.50;3.05;;;;;;;0.27;65.83;100605.37;1835662;77;21225;-67
2022/12/07 07:58:21;;;;;;;6.50;2.67;;;;;;;0.22;65.76;100596.91;1822685;77;21018;-67
2022/12/07 08:00:48;;;;;;;7.58;3.83;;;;;;;0.22;65.94;100596.05;1827899;76;21061;-67
2022/12/07 08:03:14;;;;;;;9.33;3.80;;;;;;;0.23;66.03;100599.05;1844137;76;20992;-67
2022/12/07 08:05:41;;;;;;;9.15;3.37;;;;;;;0.26;66.20;100588.59;1848208;76;21053;-67
2022/12/07 08:08:08;;;;;;;7.30;3.75;;;;;;;0.30;66.16;100595.34;1849413;76;21222;-67
2022/12/07 08:10:35;;;;;;;8.68;3.92;;;;;;;0.28;66.05;100588.09;1841059;76;21059;-67
2022/12/07 08:13:11;;;;;;;8.75;4.08;;;;;;;0.26;66.53;100593.77;1850017;76;21046;-67
2022/12/07 08:15:38;;;;;;;7.70;3.12;;;;;;;0.26;66.84;100587.30;1850385;76;21026;-67
2022/12/07 08:18:05;;;;;;;9.83;3.80;;;;;;;0.28;66.77;100589.37;1859989;76;21108;-67
2022/12/07 08:20:32;;;;;;;8.55;4.35;;;;;;;0.29;66.81;100582.86;1855655;76;21755;-67
2022/12/07 08:22:59;;;;;;;9.90;4.17;;;;;;;0.33;66.83;100583.13;1841585;76;20999;-67
2022/12/07 08:25:26;;;;;;;12.37;5.42;;;;;;;0.43;66.90;100586.72;1845842;76;21027;-67
2022/12/07 08:27:53;;;;;;;10.53;4.35;;;;;;;0.50;66.87;100577.83;1851161;76;21023;-67
2022/12/07 08:30:20;;;;;;;7.37;4.22;;;;;;;0.57;66.68;100574.57;1842321;75;21090;-67
2022/12/07 08:32:47;;;;;;;9.58;3.85;;;;;;;0.56;66.28;100577.62;1839583;75;21247;-68
2022/12/07 08:35:14;;;;;;;11.00;4.22;;;;;;;0.54;66.15;100583.31;1841522;75;21073;-67
2022/12/07 08:37:41;;;;;;;9.48;4.08;;;;;;;0.55;66.40;100583.26;1815850;77;21035;-67
2022/12/07 08:40:09;;;;;;;9.38;4.87;;;;;;;0.62;66.36;100576.09;1847628;76;21015;-67
2022/12/07 08:42:39;;;;;;;11.55;4.42;;;;;;;0.69;66.29;100570.23;1846459;76;21037;-68
2022/12/07 08:45:11;;;;;;;7.47;3.02;;;;;;;0.72;66.16;100566.25;1844269;76;21289;-68
2022/12/07 08:47:46;;;;;;;8.70;3.20;;;;;;;0.77;65.92;100565.63;1849742;76;21034;-67
2022/12/07 08:50:12;;;;;;;9.75;4.08;;;;;;;0.75;65.90;100563.55;1841588;76;22078;-68
2022/12/07 08:52:39;;;;;;;11.30;4.37;;;;;;;0.76;65.76;100556.19;1852229;76;21468;-67
2022/12/07 08:55:08;;;;;;;10.28;3.80;;;;;;;0.79;65.72;100555.22;1838988;76;21532;-68
2022/12/07 08:57:34;;;;;;;8.00;3.92;;;;;;;0.81;65.59;100554.70;1843429;76;21793;-67
2022/12/07 09:00:03;;;;;;;10.25;5.50;;;;;;;0.78;65.58;100547.06;1833479;77;20984;-68
2022/12/07 09:02:31;;;;;;;8.60;4.28;;;;;;;0.76;65.57;100549.71;1803675;78;21078;-67
2022/12/07 09:04:58;;;;;;;23.47;4.35;;;;;;;0.78;65.78;100553.08;1802248;78;21039;-68
2022/12/07 09:07:24;;;;;;;9.63;4.47;;;;;;;0.78;65.58;100549.66;1814561;78;20983;-67
2022/12/07 09:09:51;;;;;;;10.98;5.15;;;;;;;0.80;65.54;100551.73;1804235;78;21721;-68
2022/12/07 09:12:18;;;;;;;9.20;3.95;;;;;;;0.78;65.56;100550.50;1802121;78;21083;-67
2022/12/07 09:14:44;;;;;;;12.30;4.92;;;;;;;0.80;65.45;100544.80;1802141;78;21034;-67
2022/12/07 09:17:12;;;;;;;11.53;4.65;;;;;;;0.81;65.38;100545.63;1801648;79;21114;-68
2022/12/07 09:19:39;;;;;;;9.00;5.10;;;;;;;0.84;65.45;100539.05;1808927;78;21082;-67
2022/12/07 09:22:07;;;;;;;10.35;5.25;;;;;;;0.91;65.58;100534.89;1819514;78;21130;-68
2022/12/07 09:24:34;;;;;;;11.28;4.47;;;;;;;1.00;65.57;100534.16;1816152;78;21025;-68
2022/12/07 09:27:01;;;;;;;12.25;4.75;;;;;;;1.08;65.38;100529.53;1814790;78;21042;-67
2022/12/07 09:29:27;;;;;;;9.80;5.12;;;;;;;1.20;65.25;100525.16;1812743;77;21015;-67
2022/12/07 09:31:55;;;;;;;9.60;4.75;;;;;;;1.22;65.02;100519.91;1811350;78;21050;-67
2022/12/07 09:34:22;;;;;;;12.05;4.70;;;;;;;1.23;64.95;100521.16;1827380;78;21214;-67
2022/12/07 09:36:48;;;;;;;9.60;5.30;;;;;;;1.24;64.92;100515.05;1819258;78;21028;-67
2022/12/07 09:39:15;;;;;;;16.42;5.72;;;;;;;1.29;64.94;100518.77;1820643;77;21007;-68
2022/12/07 09:41:43;;;;;;;11.93;5.40;;;;;;;1.28;64.80;100511.45;1814222;78;20999;-68
2022/12/07 09:44:13;;;;;;;9.58;4.97;;;;;;;1.30;64.70;100508.80;1813124;77;21008;-67
2022/12/07 09:46:42;;;;;;;14.93;5.67;;;;;;;1.29;64.56;100507.09;1775608;78;21213;-67
2022/12/07 09:49:13;;;;;;;9.53;4.40;;;;;;;1.29;64.80;100509.25;1810757;78;21496;-68
2022/12/07 09:51:40;;;;;;;10.93;5.83;;;;;;;1.36;64.85;100505.97;1815967;76;21374;-67
2022/12/07 09:54:08;;;;;;;9.53;5.00;;;;;;;1.39;64.78;100501.09;1814934;78;21058;-67
2022/12/07 09:57:15;;;;;;;10.23;5.72;;;;;;;1.40;64.94;100501.04;1791638;78;22654;-60
2022/12/07 09:59:42;;;;;;;11.05;5.40;;;;;;;1.49;64.75;100503.70;1765184;80;21865;-61
2022/12/07 10:02:38;;;;;;;12.85;5.75;;;;;;;1.55;64.80;100502.17;1771330;80;22222;-60
2022/12/07 10:05:08;;;;;;;10.08;4.83;;;;;;;1.62;64.52;100497.12;1761313;80;21085;-60
2022/12/07 10:07:34;;;;;;;12.18;4.87;;;;;;;1.55;64.25;100496.98;1761342;80;21070;-60
2022/12/07 10:10:06;;;;;;;10.13;5.58;;;;;;;1.57;64.46;100493.88;1782365;80;21030;-59
2022/12/07 10:13:00;;;;;;;11.95;5.05;;;;;;;1.59;64.37;100494.64;1773853;80;21048;-60
2022/12/07 10:15:52;;;;;;;11.55;5.40;;;;;;;1.60;64.13;100500.23;1686592;83;21117;-60
2022/12/07 10:18:41;;;;;;;11.43;5.30;;;;;;;1.51;64.15;100500.59;1685462;83;21099;-59
2022/12/07 10:21:24;;;;;;;11.03;4.90;;;;;;;1.51;64.36;100502.36;1739244;80;20950;-60
2022/12/07 10:24:19;;;;;;;14.30;6.28;;;;;;;1.53;64.33;100503.12;1757149;80;20968;-61
2022/12/07 10:26:51;;;;;;;;;;;;;;;1.49;64.32;100488.98;1774594;80;20927;-60
2022/12/07 10:29:34;;;;;;;12.82;6.50;;;;;;;1.51;64.38;100498.00;1772684;80;21106;-60
2022/12/07 10:32:04;;;;;;;12.30;5.67;;;;;;;1.44;64.26;100493.98;1768803;80;20908;-61
2022/12/07 10:34:34;;;;;;;10.65;5.40;;;;;;;1.39;64.36;100494.16;1759057;80;21050;-61
2022/12/07 10:37:18;;;;;;;18.45;7.22;;;;;;;1.35;64.57;100482.23;1756720;80;21090;-61
2022/12/07 10:39:53;;;;;;;11.35;5.45;;;;;;;1.35;64.51;100482.70;1766249;80;21547;-61
2022/12/07 10:42:29;;;;;;;11.25;5.17;;;;;;;1.33;64.65;100484.05;1780077;80;22137;-59
2022/12/07 10:45:16;;;;;;;10.48;4.83;;;;;;;1.33;64.79;100480.16;1777902;80;21042;-59
2022/12/07 10:48:05;;;;;;;11.80;5.40;;;;;;;1.34;64.83;100483.12;1765264;80;21006;-60
2022/12/07 10:51:16;;;;;;;11.78;6.42;;;;;;;1.33;65.08;100483.19;1770749;80;21066;-60
2022/12/07 10:54:14;;;;;;;12.35;5.92;;;;;;;1.33;65.23;100474.98;1762578;80;21041;-60
2022/12/07 10:57:04;;;;;;;12.03;5.05;;;;;;;1.36;65.43;100464.92;1771042;80;21319;-61
2022/12/07 10:59:49;;;;;;;9.40;4.72;;;;;;;1.36;65.43;100461.89;1774443;80;20989;-60
2022/12/07 11:02:21;;;;;;;11.30;5.70;;;;;;;1.39;65.31;100464.34;1785510;80;21077;-60
2022/12/07 11:05:21;;;;;;;9.83;4.83;;;;;;;1.41;65.45;100462.98;1766908;80;21113;-59
2022/12/07 11:08:20;;;;;;;10.85;5.22;;;;;;;1.45;65.29;100457.61;1672788;83;21064;-60
2022/12/07 11:11:20;;;;;;;12.68;5.33;;;;;;;1.48;65.10;100448.41;1686942;85;21133;-60
2022/12/07 11:13:58;;;;;;;11.68;5.25;;;;;;;1.48;65.03;100446.29;1773828;80;21046;-61
2022/12/07 11:16:45;;;;;;;11.70;6.25;;;;;;;1.51;64.97;100444.84;1780151;80;21932;-60
2022/12/07 11:19:50;;;;;;;10.13;3.95;;;;;;;1.52;64.90;100443.94;1758051;81;21500;-60
2022/12/07 11:22:17;;;;;;;10.38;5.62;;;;;;;1.53;64.86;100447.37;1756076;81;21050;-61
2022/12/07 11:25:22;;;;;;;10.20;5.25;;;;;;;1.52;64.95;100446.53;1756218;80;21944;-61
2022/12/07 11:28:00;;;;;;;9.98;5.22;;;;;;;1.53;65.01;100449.96;1775024;80;21109;-59
2022/12/07 11:30:55;;;;;;;11.22;6.15;;;;;;;1.55;64.86;100445.58;1785831;80;21070;-60
2022/12/07 11:33:42;;;;;;;14.43;6.20;;;;;;;1.53;64.97;100448.66;1784702;80;21061;-60
2022/12/07 11:36:37;;;;;;;8.95;4.92;;;;;;;1.53;65.12;100453.42;1752234;81;21558;-60
2022/12/07 11:39:28;;;;;;;11.75;5.85;;;;;;;1.59;65.05;100452.31;1785255;80;21598;-60
2022/12/07 11:42:06;;;;;;;14.10;6.30;;;;;;;1.61;65.03;100451.78;1763246;79;21587;-60
2022/12/07 11:44:59;;;;;;;9.80;5.00;;;;;;;1.66;64.92;100453.73;1784199;80;20979;-60
2022/12/07 11:47:50;;;;;;;11.60;5.50;;;;;;;1.66;64.69;100452.44;1767441;80;21031;-60
2022/12/07 11:50:40;;;;;;;10.05;4.78;;;;;;;1.64;64.72;100447.77;1763479;80;21067;-59
2022/12/07 11:53:26;;;;;;;8.75;4.83;;;;;;;1.73;64.53;100458.21;1759018;80;21340;-60
2022/12/07 11:56:01;;;;;;;10.65;5.47;;;;;;;1.76;64.62;100456.33;1780000;80;21536;-60
2022/12/07 11:58:49;;;;;;;11.18;5.00;;;;;;;1.83;64.67;100456.91;1768122;79;21079;-60
2022/12/07 12:01:48;;;;;;;10.70;4.97;;;;;;;1.74;64.88;100456.02;1765028;80;21010;-60